Time;durP1;ratioP1;P1;durP2;ratioP2;P2;SDS_P1;SDS_P2;PMS_P1;PMS_P2;Temp;Humidity;BMP_temperature;BMP_pressure;BME280_temperature;BME280_humidity;BME280_pressure;Samples;Min_cycle;Max_cycle;Signal;HPM_P1;HPM_P2
2022/01/25 00:09:48;;;;;;;67.63;26.00;;;;;;;2.81;100.00;102715.50;7388976;19;20411;-46
2022/01/25 00:15:16;;;;;;;70.50;26.17;;;;;;;2.72;100.00;102720.53;7400398;19;20487;-47
2022/01/25 00:26:04;;;;;;;70.50;28.03;;;;;;;2.68;100.00;102690.38;7400294;19;20483;-48
2022/01/25 00:28:47;;;;;;;65.43;27.60;;;;;;;2.68;100.00;102698.03;7377737;19;20403;-48
2022/01/25 00:31:17;;;;;;;67.67;26.23;;;;;;;2.66;100.00;102700.41;7401999;19;20390;-45
2022/01/25 00:33:48;;;;;;;69.83;26.27;;;;;;;2.70;100.00;102699.09;7375185;19;20426;-45
2022/01/25 00:36:20;;;;;;;76.73;27.80;;;;;;;2.72;100.00;102705.25;7399890;19;20407;-46
2022/01/25 00:38:50;;;;;;;67.13;25.40;;;;;;;2.77;100.00;102693.88;7376490;19;20414;-48
2022/01/25 00:41:20;;;;;;;75.87;27.17;;;;;;;2.66;100.00;102694.44;7402836;19;20386;-46
2022/01/25 00:43:53;;;;;;;67.60;25.40;;;;;;;2.61;100.00;102685.41;7399875;19;20427;-46
2022/01/25 00:46:23;;;;;;;72.90;24.27;;;;;;;2.62;100.00;102687.19;7400171;19;20849;-45
2022/01/25 00:48:56;;;;;;;79.67;29.40;;;;;;;2.64;100.00;102678.06;7398238;19;20502;-46
2022/01/25 00:51:57;;;;;;;73.43;25.77;;;;;;;2.66;100.00;102674.03;7404738;19;20395;-46
2022/01/25 00:54:32;;;;;;;76.23;27.50;;;;;;;2.64;100.00;102681.53;7399925;19;20502;-46
2022/01/25 00:57:04;;;;;;;57.13;19.37;;;;;;;2.53;100.00;102677.84;7400634;19;20442;-44
2022/01/25 00:59:36;;;;;;;87.40;27.10;;;;;;;2.56;100.00;102673.06;7400210;19;20419;-45
2022/01/25 01:02:08;;;;;;;78.73;25.90;;;;;;;2.55;100.00;102678.91;7402103;19;20448;-46
2022/01/25 01:04:41;;;;;;;77.90;28.70;;;;;;;2.59;100.00;102666.47;7390411;19;20426;-46
2022/01/25 01:07:13;;;;;;;83.50;29.60;;;;;;;2.59;100.00;102674.13;7400208;19;20487;-46
2022/01/25 01:09:46;;;;;;;74.10;26.67;;;;;;;2.60;100.00;102674.28;7383474;19;20507;-50
2022/01/25 01:12:29;;;;;;;78.30;26.27;;;;;;;2.61;100.00;102672.66;7401981;19;20388;-48
2022/01/25 01:15:20;;;;;;;81.13;29.10;;;;;;;2.60;100.00;102678.50;7399768;19;20418;-52
2022/01/25 01:29:13;;;;;;;91.87;30.03;;;;;;;2.65;100.00;102673.13;7400013;19;20876;-45
2022/01/25 01:32:07;;;;;;;84.60;29.00;;;;;;;2.59;100.00;102671.56;7401604;19;20396;-52
2022/01/25 01:35:03;;;;;;;97.47;32.17;;;;;;;2.62;100.00;102667.69;7399183;19;20416;-46
2022/01/25 01:40:43;;;;;;;86.30;25.77;;;;;;;2.53;100.00;102667.66;7401396;19;20376;-50
2022/01/25 01:43:26;;;;;;;91.03;30.80;;;;;;;2.55;100.00;102671.25;7399601;19;20420;-49
2022/01/25 01:46:01;;;;;;;86.60;27.70;;;;;;;2.56;100.00;102662.88;7399770;19;20873;-49
2022/01/25 01:48:37;;;;;;;92.13;30.43;;;;;;;2.54;100.00;102668.53;7401292;19;20437;-48
2022/01/25 01:51:16;;;;;;;94.50;32.20;;;;;;;2.61;100.00;102665.00;7401539;19;20411;-50
2022/01/25 01:53:46;;;;;;;90.87;30.80;;;;;;;2.54;100.00;102663.44;7396654;19;20417;-54
2022/01/25 01:56:16;;;;;;;94.73;31.40;;;;;;;2.51;100.00;102669.13;7399831;19;20418;-51
2022/01/25 01:58:46;;;;;;;95.93;30.93;;;;;;;2.61;100.00;102670.09;7398800;19;20427;-50
2022/01/25 02:01:17;;;;;;;84.80;27.70;;;;;;;2.58;100.00;102670.69;7401277;19;20479;-50
2022/01/25 02:03:49;;;;;;;99.03;33.97;;;;;;;2.63;100.00;102663.50;7402308;19;20464;-46
2022/01/25 02:06:19;;;;;;;103.73;33.60;;;;;;;2.63;100.00;102664.44;7399014;19;20423;-49
2022/01/25 02:08:49;;;;;;;103.80;32.87;;;;;;;2.68;100.00;102658.13;7397655;19;20422;-47
2022/01/25 02:11:19;;;;;;;98.90;34.30;;;;;;;2.69;100.00;102666.69;7400728;19;20383;-47
2022/01/25 02:13:49;;;;;;;102.53;32.73;;;;;;;2.76;100.00;102665.72;7397916;19;20406;-47
2022/01/25 02:16:33;;;;;;;100.20;31.57;;;;;;;2.69;100.00;102662.53;7399134;19;20422;-45
2022/01/25 02:24:35;;;;;;;110.23;36.20;;;;;;;2.82;100.00;102651.03;7382765;19;20436;-50
2022/01/25 02:27:06;;;;;;;108.07;35.93;;;;;;;2.75;100.00;102653.66;7398951;19;20397;-48
2022/01/25 02:29:35;;;;;;;95.33;33.70;;;;;;;2.66;100.00;102646.88;7392025;19;20410;-45
2022/01/25 02:32:06;;;;;;;107.33;35.50;;;;;;;2.73;100.00;102655.16;7400088;19;20388;-50
2022/01/25 02:34:36;;;;;;;100.00;32.77;;;;;;;2.64;100.00;102656.03;7383731;19;20423;-45
2022/01/25 02:37:09;;;;;;;113.30;35.23;;;;;;;2.83;100.00;102650.28;7395812;19;20431;-45
2022/01/25 02:39:42;;;;;;;108.57;36.47;;;;;;;2.94;100.00;102646.31;7391765;19;20495;-46
2022/01/25 02:42:12;;;;;;;104.63;35.77;;;;;;;2.88;100.00;102648.22;7399959;19;20380;-46
2022/01/25 02:44:42;;;;;;;116.73;36.47;;;;;;;2.85;100.00;102648.78;7378447;19;20439;-45
2022/01/25 02:49:54;;;;;;;109.63;33.80;;;;;;;2.72;100.00;102644.06;7396825;19;20763;-47
2022/01/25 02:52:26;;;;;;;104.37;34.77;;;;;;;2.74;100.00;102650.25;7399333;19;20468;-48
2022/01/25 02:54:56;;;;;;;99.87;34.53;;;;;;;2.77;100.00;102642.91;7397476;19;20399;-44
2022/01/25 02:57:26;;;;;;;107.73;36.93;;;;;;;2.78;100.00;102654.00;7400624;19;20406;-47
2022/01/25 02:59:55;;;;;;;102.23;35.07;;;;;;;2.83;100.00;102653.72;7397496;19;20674;-46
2022/01/25 03:02:25;;;;;;;114.70;35.83;;;;;;;2.77;100.00;102654.75;7399265;19;20403;-49
2022/01/25 03:04:54;;;;;;;112.70;37.60;;;;;;;2.68;100.00;102645.38;7396394;19;20435;-47
2022/01/25 03:07:27;;;;;;;108.63;34.60;;;;;;;2.67;100.00;102655.44;7399209;19;20848;-45
2022/01/25 03:09:58;;;;;;;114.07;36.83;;;;;;;2.72;100.00;102638.97;7397703;19;20432;-45
2022/01/25 03:12:37;;;;;;;112.53;35.00;;;;;;;2.73;100.00;102635.69;7398976;19;20409;-45
2022/01/25 03:15:25;;;;;;;114.40;36.60;;;;;;;2.67;100.00;102635.06;7396332;19;20434;-48
2022/01/25 03:17:58;;;;;;;110.97;36.70;;;;;;;2.70;100.00;102626.09;7397095;19;20472;-46
2022/01/25 03:20:48;;;;;;;101.23;33.13;;;;;;;2.66;100.00;102628.16;7398800;19;20380;-48
2022/01/25 03:23:21;;;;;;;100.03;33.83;;;;;;;2.69;100.00;102619.19;7397274;19;20414;-45
2022/01/25 03:25:52;;;;;;;106.73;36.27;;;;;;;2.63;100.00;102623.63;7397003;19;20928;-44
2022/01/25 03:28:23;;;;;;;115.17;35.57;;;;;;;2.61;100.00;102612.38;7397461;19;20427;-47
2022/01/25 03:30:53;;;;;;;121.40;35.90;;;;;;;2.64;100.00;102609.22;7399011;19;20933;-49
2022/01/25 03:33:24;;;;;;;110.63;36.10;;;;;;;2.52;100.00;102604.66;7396966;19;20431;-46
2022/01/25 03:35:53;;;;;;;117.33;37.10;;;;;;;2.50;100.00;102610.34;7397050;19;20493;-48
2022/01/25 03:38:25;;;;;;;107.73;35.90;;;;;;;2.62;100.00;102596.31;7396672;19;20411;-45
2022/01/25 03:40:55;;;;;;;108.33;35.80;;;;;;;2.58;100.00;102593.31;7398123;19;20459;-47
2022/01/25 03:43:24;;;;;;;115.23;37.47;;;;;;;2.62;100.00;102592.88;7396241;19;20408;-44
2022/01/25 03:46:05;;;;;;;131.50;34.23;;;;;;;2.48;100.00;102589.81;7396799;19;20446;-46
2022/01/25 03:51:17;;;;;;;108.57;37.63;;;;;;;2.49;100.00;102583.06;7403210;19;20443;-47
2022/01/25 03:53:51;;;;;;;101.97;32.07;;;;;;;2.37;100.00;102573.38;7405514;19;20484;-48
2022/01/25 03:56:20;;;;;;;115.53;35.83;;;;;;;2.43;100.00;102573.13;7403327;19;20738;-48
2022/01/25 03:58:50;;;;;;;115.77;38.70;;;;;;;2.46;100.00;102581.09;7402829;19;20422;-46
2022/01/25 04:01:19;;;;;;;123.47;36.53;;;;;;;2.47;100.00;102580.38;7405034;19;20460;-48
2022/01/25 04:03:57;;;;;;;112.03;37.00;;;;;;;2.55;100.00;102574.41;7403212;19;20436;-45
2022/01/25 04:06:30;;;;;;;114.23;36.60;;;;;;;2.59;100.00;102574.72;7404188;19;20406;-51
2022/01/25 04:09:05;;;;;;;124.83;37.10;;;;;;;2.55;100.00;102584.59;7403260;19;20942;-45
2022/01/25 04:11:35;;;;;;;112.87;39.30;;;;;;;2.72;100.00;102582.88;7402488;19;20458;-46
2022/01/25 04:14:06;;;;;;;116.97;39.43;;;;;;;2.84;100.00;102586.69;7402702;19;20419;-50
2022/01/25 04:16:41;;;;;;;108.93;36.70;;;;;;;2.75;100.00;102588.31;7402318;19;20487;-49
2022/01/25 04:19:16;;;;;;;122.13;38.83;;;;;;;2.73;100.00;102584.72;7402761;19;20418;-46
2022/01/25 04:25:01;;;;;;;106.03;34.83;;;;;;;2.62;100.00;102591.22;7399702;19;20398;-47
2022/01/25 04:27:31;;;;;;;120.73;36.07;;;;;;;2.51;100.00;102572.28;7402648;19;20384;-53
2022/01/25 04:30:02;;;;;;;112.07;35.87;;;;;;;2.50;100.00;102570.47;7403371;19;20391;-46
2022/01/25 04:32:43;;;;;;;118.17;37.07;;;;;;;2.49;100.00;102566.13;7402442;19;20392;-48
2022/01/25 04:35:27;;;;;;;112.93;36.60;;;;;;;2.55;100.00;102561.66;7402668;19;20846;-49
2022/01/25 04:49:06;;;;;;;122.40;36.60;;;;;;;2.52;100.00;102560.44;7401183;19;20473;-46
2022/01/25 04:51:48;;;;;;;114.27;34.60;;;;;;;2.41;100.00;102549.16;7405583;19;20388;-51
2022/01/25 04:54:29;;;;;;;114.60;35.37;;;;;;;2.41;100.00;102564.44;7401460;19;20485;-48
2022/01/25 04:57:13;;;;;;;122.23;35.90;;;;;;;2.42;100.00;102563.69;7401398;19;20901;-51
2022/01/25 04:59:53;;;;;;;123.47;39.17;;;;;;;2.44;100.00;102564.75;7399162;19;20478;-48
2022/01/25 05:02:33;;;;;;;115.33;35.90;;;;;;;2.39;100.00;102565.91;7403972;19;20851;-45
2022/01/25 05:05:09;;;;;;;116.57;35.67;;;;;;;2.33;100.00;102560.19;7401316;19;20407;-47
2022/01/25 05:07:45;;;;;;;115.97;36.60;;;;;;;2.40;100.00;102566.06;7401490;19;20384;-48
2022/01/25 05:10:15;;;;;;;117.93;38.37;;;;;;;2.44;100.00;102569.84;7402478;19;20420;-48
2022/01/25 05:12:52;;;;;;;115.53;37.13;;;;;;;2.56;100.00;102572.75;7400843;19;20726;-47
2022/01/25 05:16:01;;;;;;;122.13;35.70;;;;;;;2.46;100.00;102572.56;7401560;19;20416;-48
2022/01/25 05:18:41;;;;;;;106.43;33.37;;;;;;;2.40;100.00;102558.44;7400954;19;20407;-45
2022/01/25 05:23:53;;;;;;;118.50;36.73;;;;;;;2.34;100.00;102561.97;7401059;19;20422;-46
2022/01/25 05:26:23;;;;;;;122.27;33.37;;;;;;;2.26;100.00;102567.19;7400474;19;20391;-44
2022/01/25 05:29:00;;;;;;;116.23;35.30;;;;;;;2.38;100.00;102565.03;7398535;19;20691;-45
2022/01/25 05:31:29;;;;;;;115.03;34.50;;;;;;;2.38;100.00;102556.47;7405473;19;20438;-47
2022/01/25 05:33:59;;;;;;;126.30;37.03;;;;;;;2.38;100.00;102561.56;7399636;19;20407;-45
2022/01/25 05:36:29;;;;;;;130.40;34.97;;;;;;;2.38;100.00;102554.84;7400198;19;20410;-48
2022/01/25 05:39:02;;;;;;;108.17;36.70;;;;;;;2.39;100.00;102555.72;7400099;19;20487;-53
2022/01/25 05:41:33;;;;;;;120.63;34.67;;;;;;;2.39;100.00;102551.53;7401853;19;20392;-52
2022/01/25 05:44:22;;;;;;;110.40;34.17;;;;;;;2.43;100.00;102553.63;7400049;19;20420;-50
2022/01/25 05:47:05;;;;;;;118.73;36.87;;;;;;;2.42;100.00;102549.28;7399396;19;20443;-48
2022/01/25 05:49:36;;;;;;;117.77;32.83;;;;;;;2.40;100.00;102547.31;7399294;19;20422;-46
2022/01/25 05:52:06;;;;;;;121.67;35.90;;;;;;;2.37;100.00;102552.13;7400191;19;20400;-48
2022/01/25 05:54:37;;;;;;;120.17;36.47;;;;;;;2.36;100.00;102557.97;7396275;19;20412;-45
2022/01/25 05:57:07;;;;;;;118.53;37.60;;;;;;;2.43;100.00;102557.84;7404074;19;20440;-45
2022/01/25 05:59:39;;;;;;;106.37;35.77;;;;;;;2.41;100.00;102564.44;7399386;19;20452;-46
2022/01/25 06:02:09;;;;;;;113.70;35.97;;;;;;;2.44;100.00;102562.19;7401128;19;20384;-48
2022/01/25 06:04:40;;;;;;;124.80;37.87;;;;;;;2.43;100.00;102563.84;7397179;19;20422;-49
2022/01/25 06:07:09;;;;;;;111.97;36.90;;;;;;;2.42;100.00;102562.03;7401475;19;20435;-47
2022/01/25 06:09:42;;;;;;;125.43;39.20;;;;;;;2.44;100.00;102557.09;7398691;19;20430;-45
2022/01/25 06:12:13;;;;;;;124.03;39.00;;;;;;;2.50;100.00;102554.28;7399724;19;20398;-50
2022/01/25 06:14:45;;;;;;;125.30;38.70;;;;;;;2.45;100.00;102546.16;7380294;19;20429;-47
2022/01/25 06:17:14;;;;;;;121.30;38.00;;;;;;;2.50;100.00;102550.09;7399039;19;20490;-50
2022/01/25 06:19:44;;;;;;;111.93;37.00;;;;;;;2.52;100.00;102551.13;7380663;19;20407;-48
2022/01/25 06:22:14;;;;;;;106.63;36.00;;;;;;;2.51;100.00;102551.88;7400828;19;20836;-48
2022/01/25 06:24:43;;;;;;;110.13;34.10;;;;;;;2.54;100.00;102552.22;7398157;19;20414;-45
2022/01/25 06:27:13;;;;;;;117.70;36.23;;;;;;;2.55;100.00;102551.47;7398546;19;20423;-46
2022/01/25 06:29:47;;;;;;;118.37;35.33;;;;;;;2.51;100.00;102557.00;7392763;19;20415;-46
2022/01/25 06:32:16;;;;;;;116.37;36.93;;;;;;;2.49;100.00;102555.94;7399204;19;20813;-46
2022/01/25 06:34:46;;;;;;;109.07;34.60;;;;;;;2.52;100.00;102553.69;7397788;19;20471;-47
2022/01/25 06:37:16;;;;;;;117.20;37.80;;;;;;;2.50;100.00;102550.09;7398152;19;20487;-47
2022/01/25 06:39:46;;;;;;;117.83;37.60;;;;;;;2.54;100.00;102547.13;7398181;19;20456;-51
2022/01/25 06:42:15;;;;;;;107.00;36.07;;;;;;;2.50;100.00;102546.63;7400095;19;20842;-46
2022/01/25 06:44:47;;;;;;;107.20;34.47;;;;;;;2.48;100.00;102543.94;7399815;19;20458;-51
2022/01/25 06:47:17;;;;;;;112.80;37.17;;;;;;;2.54;100.00;102551.31;7397699;19;20475;-49
2022/01/25 06:49:46;;;;;;;123.93;36.47;;;;;;;2.61;100.00;102545.22;7397306;19;20418;-45
2022/01/25 06:52:16;;;;;;;120.63;37.33;;;;;;;2.60;100.00;102546.84;7398616;19;20412;-46
2022/01/25 06:54:45;;;;;;;118.57;36.63;;;;;;;2.54;100.00;102552.22;7397022;19;20419;-47
2022/01/25 06:57:15;;;;;;;109.57;34.70;;;;;;;2.53;100.00;102544.41;7401920;19;20419;-46
2022/01/25 06:59:44;;;;;;;122.83;40.40;;;;;;;2.54;100.00;102552.22;7397566;19;20416;-51
2022/01/25 07:02:16;;;;;;;116.80;35.10;;;;;;;2.55;100.00;102548.94;7399364;19;20391;-47
2022/01/25 07:04:46;;;;;;;110.90;37.90;;;;;;;2.55;100.00;102548.94;7396557;19;20418;-47
2022/01/25 07:07:16;;;;;;;127.53;40.47;;;;;;;2.54;100.00;102551.31;7397523;19;20426;-48
2022/01/25 07:09:45;;;;;;;120.23;38.77;;;;;;;2.59;100.00;102552.69;7396833;19;20479;-46
2022/01/25 07:12:15;;;;;;;118.77;36.30;;;;;;;2.53;100.00;102550.44;7398246;19;20380;-46
2022/01/25 07:14:44;;;;;;;110.17;34.70;;;;;;;2.64;100.00;102553.16;7396396;19;20478;-47
2022/01/25 07:17:16;;;;;;;110.77;33.70;;;;;;;2.54;100.00;102544.59;7400382;19;20487;-52
2022/01/25 07:19:46;;;;;;;111.30;39.03;;;;;;;2.58;100.00;102542.34;7397619;19;20743;-47
2022/01/25 07:22:15;;;;;;;112.10;35.80;;;;;;;2.60;100.00;102551.06;7401839;19;20392;-49
2022/01/25 07:24:45;;;;;;;121.27;37.07;;;;;;;2.53;100.00;102545.34;7403312;19;20434;-46
2022/01/25 07:27:17;;;;;;;110.97;37.57;;;;;;;2.56;100.00;102550.72;7403305;19;20419;-46
2022/01/25 07:29:47;;;;;;;133.10;37.50;;;;;;;2.54;100.00;102552.22;7404243;19;20726;-45
2022/01/25 07:32:19;;;;;;;123.20;36.77;;;;;;;2.62;100.00;102555.53;7405237;19;20703;-46
2022/01/25 07:34:57;;;;;;;115.80;36.60;;;;;;;2.71;100.00;102553.03;7404490;19;20694;-45
2022/01/25 07:37:28;;;;;;;138.70;41.30;;;;;;;2.85;100.00;102557.00;7406728;19;20423;-49
2022/01/25 07:40:02;;;;;;;136.33;43.77;;;;;;;3.16;100.00;102541.34;7404976;19;20414;-46
2022/01/25 07:42:37;;;;;;;129.57;40.77;;;;;;;3.07;100.00;102551.53;7404385;19;20411;-50
2022/01/25 07:45:21;;;;;;;118.30;38.40;;;;;;;2.94;100.00;102557.03;7401551;19;20875;-51
2022/01/25 07:48:02;;;;;;;95.33;33.60;;;;;;;2.87;100.00;102557.16;7403418;19;20411;-46
2022/01/25 07:50:32;;;;;;;108.33;36.40;;;;;;;2.66;100.00;102557.66;7405364;19;20384;-46
2022/01/25 07:53:07;;;;;;;107.40;33.43;;;;;;;2.66;100.00;102555.13;7403744;19;20425;-46
2022/01/25 07:55:36;;;;;;;120.00;38.33;;;;;;;2.70;100.00;102553.78;7403729;19;20419;-50
2022/01/25 07:58:06;;;;;;;106.20;34.17;;;;;;;2.65;100.00;102553.31;7403941;19;20696;-47
2022/01/25 08:00:36;;;;;;;114.47;36.70;;;;;;;2.62;100.00;102552.09;7405426;19;20731;-46
2022/01/25 08:03:08;;;;;;;115.03;37.07;;;;;;;2.67;100.00;102558.59;7405774;19;20689;-47
2022/01/25 08:05:55;;;;;;;116.13;35.13;;;;;;;2.57;100.00;102551.63;7399271;19;20428;-46
2022/01/25 08:08:38;;;;;;;108.63;32.77;;;;;;;2.61;100.00;102558.84;7403627;19;20904;-46
2022/01/25 08:11:22;;;;;;;112.23;34.43;;;;;;;2.62;100.00;102554.66;7398275;19;20486;-47
2022/01/25 08:14:11;;;;;;;130.97;36.13;;;;;;;2.62;100.00;102554.66;7399354;19;20427;-46
2022/01/25 08:16:53;;;;;;;117.10;36.83;;;;;;;2.63;100.00;102548.81;7398149;19;20428;-45
2022/01/25 08:19:33;;;;;;;119.47;39.50;;;;;;;2.67;100.00;102550.94;7394552;19;20418;-47
2022/01/25 08:22:29;;;;;;;118.43;35.17;;;;;;;2.69;100.00;102557.09;7398652;19;20399;-45
2022/01/25 08:25:09;;;;;;;136.87;39.70;;;;;;;2.68;100.00;102558.72;7394493;19;20706;-47
2022/01/25 08:27:48;;;;;;;124.40;39.40;;;;;;;2.69;100.00;102564.72;7395083;19;20897;-48
2022/01/25 08:30:36;;;;;;;122.27;39.10;;;;;;;2.72;100.00;102567.59;7400637;19;20833;-46
2022/01/25 08:33:19;;;;;;;114.93;37.90;;;;;;;2.73;100.00;102566.88;7393929;19;20398;-45
2022/01/25 08:36:14;;;;;;;117.80;38.17;;;;;;;2.74;100.00;102566.13;7397121;19;20404;-48
2022/01/25 08:38:46;;;;;;;109.90;37.20;;;;;;;2.72;100.00;102566.69;7398729;19;20423;-48
2022/01/25 08:41:26;;;;;;;128.37;40.07;;;;;;;2.77;100.00;102570.63;7402197;19;20667;-50
2022/01/25 08:44:15;;;;;;;116.07;35.97;;;;;;;2.72;100.00;102570.13;7397783;19;20404;-45
2022/01/25 08:46:53;;;;;;;128.90;39.40;;;;;;;2.74;100.00;102567.75;7398403;19;20701;-45
2022/01/25 08:49:43;;;;;;;115.47;37.47;;;;;;;2.77;100.00;102566.41;7400153;19;20422;-48
2022/01/25 08:52:29;;;;;;;114.20;36.33;;;;;;;2.76;100.00;102563.72;7403489;19;20391;-45
2022/01/25 08:55:13;;;;;;;120.80;39.93;;;;;;;2.87;100.00;102569.91;7398163;19;20911;-48
2022/01/25 08:57:59;;;;;;;102.37;34.30;;;;;;;2.83;100.00;102561.94;7397549;19;20439;-46
2022/01/25 09:00:29;;;;;;;124.77;35.23;;;;;;;2.80;100.00;102561.63;7399867;19;20400;-52
2022/01/25 09:03:00;;;;;;;114.10;36.00;;;;;;;2.79;100.00;102564.94;7397581;19;20411;-47
2022/01/25 09:05:30;;;;;;;113.40;35.80;;;;;;;2.73;100.00;102560.84;7397018;19;20410;-46
2022/01/25 09:08:02;;;;;;;113.87;35.80;;;;;;;2.84;100.00;102571.38;7397004;19;20415;-46
2022/01/25 09:10:31;;;;;;;110.50;34.50;;;;;;;2.89;100.00;102573.50;7399550;19;20775;-51
2022/01/25 09:13:01;;;;;;;111.00;37.10;;;;;;;2.82;100.00;102574.56;7400105;19;20404;-46
2022/01/25 09:15:31;;;;;;;118.83;39.60;;;;;;;2.90;100.00;102578.78;7401465;19;20449;-47
2022/01/25 09:18:01;;;;;;;132.40;36.80;;;;;;;2.98;100.00;102569.38;7379770;19;20459;-48
2022/01/25 09:20:30;;;;;;;120.80;36.63;;;;;;;2.90;100.00;102572.75;7401865;19;20410;-48
2022/01/25 09:23:02;;;;;;;129.27;38.10;;;;;;;2.83;100.00;102568.72;7398265;19;20662;-51
2022/01/25 09:25:32;;;;;;;116.40;36.10;;;;;;;2.80;100.00;102573.47;7397313;19;20404;-48
2022/01/25 09:28:03;;;;;;;129.07;38.80;;;;;;;2.84;100.00;102565.41;7399371;19;20860;-48
2022/01/25 09:30:32;;;;;;;119.33;37.83;;;;;;;2.90;100.00;102563.47;7399086;19;20389;-48
2022/01/25 09:33:02;;;;;;;113.20;34.30;;;;;;;2.88;100.00;102569.16;7398998;19;20876;-48
2022/01/25 09:35:31;;;;;;;122.53;37.27;;;;;;;2.89;100.00;102565.88;7404758;19;20427;-45
2022/01/25 09:38:04;;;;;;;115.93;37.20;;;;;;;3.05;100.00;102559.03;7399962;19;20498;-47
2022/01/25 09:40:34;;;;;;;130.13;40.33;;;;;;;3.24;100.00;102558.34;7401635;19;20378;-46
2022/01/25 09:43:03;;;;;;;121.10;36.97;;;;;;;3.33;100.00;102559.25;7403044;19;20403;-47
2022/01/25 09:45:33;;;;;;;97.60;32.47;;;;;;;3.33;100.00;102560.91;7399288;19;20503;-46
2022/01/25 09:48:03;;;;;;;116.33;34.57;;;;;;;3.18;100.00;102560.28;7398556;19;20411;-47
2022/01/25 09:50:37;;;;;;;126.00;36.07;;;;;;;3.18;100.00;102565.38;7401688;19;20403;-46
2022/01/25 09:53:10;;;;;;;109.63;33.03;;;;;;;3.08;100.00;102572.09;7396424;19;20900;-46
2022/01/25 09:55:42;;;;;;;100.17;30.93;;;;;;;3.09;100.00;102571.34;7400017;19;20405;-47
2022/01/25 09:58:13;;;;;;;109.97;34.30;;;;;;;3.05;100.00;102569.25;7399075;19;20999;-52
2022/01/25 10:00:44;;;;;;;100.03;31.10;;;;;;;3.09;100.00;102571.34;7401270;19;20845;-47
2022/01/25 10:03:20;;;;;;;101.37;34.20;;;;;;;3.16;100.00;102566.84;7399055;19;20435;-46
2022/01/25 10:05:51;;;;;;;94.17;30.80;;;;;;;3.19;100.00;102567.19;7399290;19;20435;-50
2022/01/25 10:08:24;;;;;;;107.50;34.13;;;;;;;3.26;100.00;102564.50;7399355;19;20734;-45
2022/01/25 10:10:56;;;;;;;103.10;33.77;;;;;;;3.27;100.00;102570.50;7401023;19;20399;-46
2022/01/25 10:13:26;;;;;;;91.40;32.47;;;;;;;3.18;100.00;102562.84;7397212;19;20490;-47
2022/01/25 10:16:01;;;;;;;102.97;32.70;;;;;;;3.20;100.00;102561.31;7397045;19;20755;-45
2022/01/25 10:18:42;;;;;;;90.40;29.73;;;;;;;3.21;100.00;102566.59;7401032;19;20398;-44
2022/01/25 10:21:17;;;;;;;84.37;29.07;;;;;;;3.23;100.00;102567.63;7394041;19;20475;-48
2022/01/25 10:24:09;;;;;;;100.00;30.97;;;;;;;3.32;100.00;102562.56;7399889;19;20387;-47
2022/01/25 10:26:49;;;;;;;102.00;34.10;;;;;;;3.37;100.00;102571.59;7387885;19;20428;-47
2022/01/25 10:29:20;;;;;;;95.57;33.70;;;;;;;3.41;100.00;102564.22;7388651;19;20702;-47
2022/01/25 10:31:57;;;;;;;107.27;33.03;;;;;;;3.42;100.00;102566.94;7399809;19;20412;-47
2022/01/25 10:34:29;;;;;;;95.67;33.77;;;;;;;3.47;100.00;102565.75;7394921;19;20740;-45
2022/01/25 10:37:00;;;;;;;89.33;30.47;;;;;;;3.51;100.00;102561.84;7398459;19;20425;-48
2022/01/25 10:39:34;;;;;;;102.60;34.00;;;;;;;3.45;100.00;102557.03;7363559;19;20379;-49
2022/01/25 10:42:05;;;;;;;89.20;26.60;;;;;;;3.38;100.00;102560.63;7399795;19;20410;-48
2022/01/25 10:44:50;;;;;;;82.63;29.77;;;;;;;3.44;100.00;102555.22;7378008;19;21012;-51
2022/01/25 10:47:21;;;;;;;103.63;26.50;;;;;;;3.34;100.00;102555.94;7396830;19;20412;-46
2022/01/25 10:49:53;;;;;;;101.33;30.80;;;;;;;3.38;100.00;102563.16;7397503;19;20480;-48
2022/01/25 10:52:26;;;;;;;162.83;56.57;;;;;;;3.55;100.00;102558.84;7400164;19;20416;-46
2022/01/25 10:55:06;;;;;;;90.63;32.73;;;;;;;3.60;100.00;102551.66;7392170;19;20702;-46
2022/01/25 10:57:36;;;;;;;275.20;92.53;;;;;;;3.60;100.00;102555.06;7397242;19;20446;-51
2022/01/25 11:00:32;;;;;;;131.10;42.33;;;;;;;3.59;100.00;102560.94;7397321;19;20900;-51
2022/01/25 11:03:04;;;;;;;91.30;31.00;;;;;;;3.53;100.00;102555.22;7399252;19;20403;-46
2022/01/25 11:05:35;;;;;;;83.77;27.87;;;;;;;3.58;100.00;102558.25;7396363;19;20403;-50
2022/01/25 11:08:12;;;;;;;83.90;27.07;;;;;;;3.52;100.00;102555.97;7398436;19;20388;-47
2022/01/25 11:10:52;;;;;;;91.97;29.67;;;;;;;3.53;100.00;102551.78;7397195;19;20410;-48
2022/01/25 11:13:35;;;;;;;92.77;32.40;;;;;;;3.64;100.00;102551.22;7398824;19;20449;-48
2022/01/25 11:16:07;;;;;;;106.50;33.67;;;;;;;3.53;100.00;102550.13;7394704;19;20477;-45
2022/01/25 11:18:37;;;;;;;80.73;28.57;;;;;;;3.61;100.00;102538.13;7401238;19;20399;-49
2022/01/25 11:21:08;;;;;;;81.93;26.43;;;;;;;3.56;100.00;102540.22;7395208;19;20858;-46
2022/01/25 11:23:40;;;;;;;83.93;29.90;;;;;;;3.60;100.00;102536.31;7397114;19;20420;-45
2022/01/25 11:26:14;;;;;;;93.07;28.63;;;;;;;3.53;100.00;102529.69;7392382;19;20884;-49
2022/01/25 11:28:45;;;;;;;108.43;32.37;;;;;;;3.67;100.00;102532.72;7397342;19;20400;-48
2022/01/25 11:31:18;;;;;;;111.67;36.53;;;;;;;3.84;100.00;102526.72;7395136;19;20408;-46
2022/01/25 11:33:49;;;;;;;88.93;26.60;;;;;;;3.62;100.00;102522.06;7396718;19;20408;-52
2022/01/25 11:36:19;;;;;;;84.53;27.77;;;;;;;3.67;100.00;102518.31;7374504;19;20446;-48
2022/01/25 11:38:51;;;;;;;92.17;29.20;;;;;;;3.62;100.00;102520.41;7402311;19;20466;-46
2022/01/25 11:41:26;;;;;;;83.60;26.13;;;;;;;3.55;100.00;102512.00;7398492;19;20469;-51
2022/01/25 11:44:09;;;;;;;87.43;28.90;;;;;;;3.66;100.00;102516.50;7397203;19;20721;-46
2022/01/25 11:46:39;;;;;;;88.47;28.77;;;;;;;3.64;100.00;102516.34;7378321;19;20932;-47
2022/01/25 11:49:14;;;;;;;78.60;27.30;;;;;;;3.63;100.00;102506.91;7383136;19;20397;-48
2022/01/25 11:51:44;;;;;;;87.07;27.27;;;;;;;3.64;100.00;102508.69;7396958;19;20383;-47
2022/01/25 11:54:14;;;;;;;61.43;23.60;;;;;;;3.63;100.00;102496.69;7394001;19;20385;-47
2022/01/25 11:56:46;;;;;;;76.00;26.03;;;;;;;3.61;100.00;102497.28;7394359;19;20440;-45
2022/01/25 11:59:16;;;;;;;84.40;25.80;;;;;;;3.68;100.00;102493.69;7387804;19;20388;-46
2022/01/25 12:01:52;;;;;;;81.70;28.10;;;;;;;3.74;100.00;102499.41;7396331;19;20484;-47
2022/01/25 12:04:22;;;;;;;67.97;23.80;;;;;;;3.65;100.00;102496.84;7394258;19;20413;-45
2022/01/25 12:07:00;;;;;;;78.67;25.30;;;;;;;3.69;100.00;102488.72;7394224;19;20435;-44
2022/01/25 12:09:46;;;;;;;70.80;21.80;;;;;;;3.73;100.00;102488.28;7400736;19;20490;-44
2022/01/25 12:12:19;;;;;;;90.40;27.33;;;;;;;3.83;100.00;102487.50;7403356;19;20451;-44
2022/01/25 12:14:51;;;;;;;69.60;25.00;;;;;;;3.77;100.00;102479.25;7400493;19;20540;-45
2022/01/25 12:17:23;;;;;;;76.27;27.00;;;;;;;3.86;100.00;102490.38;7400612;19;20427;-50
2022/01/25 12:19:55;;;;;;;82.63;26.47;;;;;;;3.97;100.00;102482.81;7401833;19;20408;-47
2022/01/25 12:22:38;;;;;;;71.00;23.33;;;;;;;3.94;100.00;102470.66;7403575;19;20837;-47
2022/01/25 12:25:15;;;;;;;78.77;25.93;;;;;;;3.91;100.00;102468.69;7400153;19;20404;-46
2022/01/25 12:27:54;;;;;;;68.93;25.37;;;;;;;3.93;100.00;102476.53;7402798;19;20401;-45
2022/01/25 12:30:42;;;;;;;69.20;23.53;;;;;;;3.99;100.00;102476.22;7400396;19;20405;-47
2022/01/25 12:33:13;;;;;;;67.10;23.67;;;;;;;4.00;100.00;102462.69;7402340;19;20388;-54
2022/01/25 12:35:46;;;;;;;63.53;24.27;;;;;;;4.02;100.00;102462.09;7399987;19;20407;-49
2022/01/25 12:38:19;;;;;;;61.53;22.10;;;;;;;4.04;100.00;102464.78;7402105;19;20817;-47